Terminal Aerodrome Forecast
Issued by NWS

Home | Current Version | Previous Version | Text Only | Print | Product List | Glossary On
Versions: 1 2 3 4 5 6 7 8 9 10 11 12
000
FTUS46 KHNX 221729
TAFBFL
TAF
KBFL 221729Z 2218/2318 16004KT P6SM SKC
     FM231200 VRB03KT 4SM HZ BR SCT040=

USA.gov is the U.S. government's official web portal to all federal, state and local government web resources and services.